Time;durP1;ratioP1;P1;durP2;ratioP2;P2;SDS_P1;SDS_P2;PMS_P1;PMS_P2;Temp;Humidity;BMP_temperature;BMP_pressure;BME280_temperature;BME280_humidity;BME280_pressure;Samples;Min_cycle;Max_cycle;Signal;HPM_P1;HPM_P2
2021/12/29 00:01:52;;;;;;;20.80;14.03;;;4.10;99.90;;;;;;4979485;28;20175;-53
2021/12/29 00:04:20;;;;;;;18.80;12.63;;;4.20;99.90;;;;;;4979581;28;20178;-55
2021/12/29 00:06:46;;;;;;;21.73;14.03;;;4.20;99.90;;;;;;4979230;28;20290;-55
2021/12/29 00:09:13;;;;;;;19.77;14.00;;;4.20;99.90;;;;;;4978847;28;20221;-51
2021/12/29 00:11:40;;;;;;;18.57;13.27;;;4.20;99.90;;;;;;4978162;28;20472;-55
2021/12/29 00:14:09;;;;;;;17.13;12.30;;;4.20;99.90;;;;;;4976826;28;20774;-54
2021/12/29 00:16:36;;;;;;;19.40;12.53;;;4.20;99.90;;;;;;4961979;28;20223;-55
2021/12/29 00:19:04;;;;;;;20.03;14.20;;;4.20;99.90;;;;;;4970337;28;20428;-55
2021/12/29 00:21:32;;;;;;;17.90;12.53;;;4.20;99.90;;;;;;4990035;28;20381;-55
2021/12/29 00:23:59;;;;;;;21.47;15.20;;;4.20;99.90;;;;;;4972090;28;20480;-48
2021/12/29 00:26:29;;;;;;;20.70;14.60;;;4.20;99.90;;;;;;4973171;28;20190;-48
2021/12/29 00:29:00;;;;;;;19.23;14.10;;;4.20;99.90;;;;;;4971138;28;20196;-54
2021/12/29 00:31:30;;;;;;;20.83;13.50;;;4.20;99.90;;;;;;4951813;28;20258;-50
2021/12/29 00:33:58;;;;;;;18.43;12.93;;;4.20;99.90;;;;;;4954136;28;20517;-51
2021/12/29 00:36:24;;;;;;;18.37;13.03;;;4.30;99.90;;;;;;4955420;28;20208;-55
2021/12/29 00:38:50;;;;;;;20.77;13.30;;;4.30;99.90;;;;;;4960098;28;20195;-55
2021/12/29 00:41:16;;;;;;;19.70;13.10;;;4.30;99.90;;;;;;4976019;28;20167;-55
2021/12/29 00:43:42;;;;;;;21.57;14.13;;;4.30;99.90;;;;;;4993376;28;20557;-51
2021/12/29 00:46:10;;;;;;;20.10;13.17;;;4.30;99.90;;;;;;4975562;28;20179;-54
2021/12/29 00:48:38;;;;;;;21.03;13.23;;;4.30;99.90;;;;;;4975250;28;20205;-55
2021/12/29 00:51:04;;;;;;;17.53;13.50;;;4.30;99.90;;;;;;4976407;28;20520;-53
2021/12/29 00:53:30;;;;;;;20.47;14.07;;;4.30;99.90;;;;;;4987795;28;20611;-51
2021/12/29 00:55:55;;;;;;;22.10;14.40;;;4.30;99.90;;;;;;4995583;28;20312;-53
2021/12/29 00:58:21;;;;;;;23.13;15.33;;;4.30;99.90;;;;;;4992644;28;20179;-53
2021/12/29 01:00:47;;;;;;;20.10;13.73;;;4.30;99.90;;;;;;4994608;28;20201;-54
2021/12/29 01:03:13;;;;;;;21.00;13.30;;;4.30;99.90;;;;;;4994669;28;20396;-56
2021/12/29 01:05:38;;;;;;;21.33;13.63;;;4.30;99.90;;;;;;4993784;28;20189;-54
2021/12/29 01:08:05;;;;;;;20.47;13.60;;;4.30;99.90;;;;;;4991816;28;20181;-53
2021/12/29 01:10:31;;;;;;;18.93;13.03;;;4.20;99.90;;;;;;4991632;28;20273;-51
2021/12/29 01:12:59;;;;;;;20.07;13.87;;;4.30;99.90;;;;;;4992459;28;20330;-54
2021/12/29 01:15:36;;;;;;;21.43;14.03;;;4.30;99.90;;;;;;4987521;28;20213;-52
2021/12/29 01:18:04;;;;;;;22.37;14.60;;;4.30;99.90;;;;;;4992075;28;20279;-53
2021/12/29 01:20:30;;;;;;;20.40;14.60;;;4.20;99.90;;;;;;4975329;28;20167;-54
2021/12/29 01:22:59;;;;;;;20.33;12.17;;;4.20;99.90;;;;;;4992001;28;20199;-55
2021/12/29 01:25:26;;;;;;;19.50;13.60;;;4.20;99.90;;;;;;4991497;28;20175;-50
2021/12/29 01:27:52;;;;;;;22.80;15.00;;;4.20;99.90;;;;;;4990824;28;20171;-55
2021/12/29 01:30:18;;;;;;;21.57;15.03;;;4.20;99.90;;;;;;4974976;28;20168;-50
2021/12/29 01:32:44;;;;;;;21.13;15.10;;;4.20;99.90;;;;;;4976155;28;20464;-52
2021/12/29 01:35:11;;;;;;;24.10;14.10;;;4.20;99.90;;;;;;4973178;28;20553;-50
2021/12/29 01:37:36;;;;;;;21.50;14.67;;;4.30;99.90;;;;;;4991175;28;20273;-53
2021/12/29 01:40:11;;;;;;;21.60;14.33;;;4.30;99.90;;;;;;4990549;28;20197;-49
2021/12/29 01:42:36;;;;;;;22.13;14.93;;;4.30;99.90;;;;;;4990966;28;20180;-50
2021/12/29 01:45:05;;;;;;;21.13;14.10;;;4.20;99.90;;;;;;4976832;28;20176;-54
2021/12/29 01:47:32;;;;;;;27.23;16.60;;;4.20;99.90;;;;;;4992217;28;20210;-51
2021/12/29 01:50:01;;;;;;;23.40;15.90;;;4.20;99.90;;;;;;4992671;28;20175;-49
2021/12/29 01:52:32;;;;;;;21.93;14.27;;;4.20;99.90;;;;;;4992044;28;20215;-53
2021/12/29 01:55:00;;;;;;;25.13;14.70;;;4.20;99.90;;;;;;4995391;28;21493;-52
2021/12/29 01:57:25;;;;;;;26.03;16.57;;;4.20;99.90;;;;;;4998846;28;20287;-54
2021/12/29 01:59:51;;;;;;;26.20;15.87;;;4.20;99.90;;;;;;5016556;28;20177;-51
2021/12/29 02:02:17;;;;;;;25.60;15.53;;;4.20;99.90;;;;;;5015368;28;20566;-52
2021/12/29 02:04:44;;;;;;;30.60;16.90;;;4.20;99.90;;;;;;4998715;28;20269;-50
2021/12/29 02:07:11;;;;;;;30.20;16.20;;;4.10;99.90;;;;;;4998117;28;20386;-52
2021/12/29 02:09:37;;;;;;;25.63;15.30;;;4.20;99.90;;;;;;4998951;28;20317;-51
2021/12/29 02:12:04;;;;;;;32.20;18.30;;;4.10;99.90;;;;;;5015598;28;20567;-55
2021/12/29 02:14:30;;;;;;;29.60;16.83;;;4.10;99.90;;;;;;4998318;28;20539;-52
2021/12/29 02:16:55;;;;;;;26.93;15.80;;;4.20;99.90;;;;;;4999036;28;20213;-48
2021/12/29 02:19:23;;;;;;;30.10;16.67;;;4.20;99.90;;;;;;4998123;28;20197;-54
2021/12/29 02:22:04;;;;;;;31.10;18.47;;;4.20;99.90;;;;;;4998334;28;20163;-51
2021/12/29 02:24:39;;;;;;;33.70;18.87;;;4.20;99.90;;;;;;4997015;28;20264;-55
2021/12/29 02:27:06;;;;;;;27.80;17.77;;;4.10;99.90;;;;;;5014195;28;20173;-51
2021/12/29 02:29:33;;;;;;;28.80;16.67;;;4.10;99.90;;;;;;5014388;28;20594;-56
2021/12/29 02:31:59;;;;;;;28.33;16.53;;;4.10;99.90;;;;;;4997978;28;20243;-52
2021/12/29 02:34:24;;;;;;;30.27;17.17;;;4.20;99.90;;;;;;4999458;28;20257;-50
2021/12/29 02:36:50;;;;;;;35.50;19.17;;;4.20;99.90;;;;;;4998643;28;20281;-52
2021/12/29 02:39:19;;;;;;;28.03;16.07;;;4.10;99.90;;;;;;4993743;28;20592;-53
2021/12/29 02:41:51;;;;;;;26.07;16.97;;;4.10;99.90;;;;;;4997346;28;20439;-51
2021/12/29 02:44:25;;;;;;;31.90;17.50;;;4.10;99.90;;;;;;4980848;28;20345;-51
2021/12/29 02:46:51;;;;;;;28.03;17.23;;;4.10;99.90;;;;;;4996714;28;20642;-55
2021/12/29 02:49:17;;;;;;;29.07;16.43;;;4.10;99.90;;;;;;4977856;28;20470;-53
2021/12/29 02:51:43;;;;;;;31.67;18.37;;;4.10;99.90;;;;;;4979131;28;20563;-52
2021/12/29 02:54:09;;;;;;;30.17;17.13;;;4.10;99.90;;;;;;4975498;28;20500;-52
2021/12/29 02:56:35;;;;;;;27.23;16.77;;;4.10;99.90;;;;;;4991547;28;20204;-49
2021/12/29 02:59:01;;;;;;;30.43;20.13;;;4.10;99.90;;;;;;4973610;28;20392;-48
2021/12/29 03:01:28;;;;;;;30.73;17.93;;;4.20;99.90;;;;;;4974873;28;20659;-52
2021/12/29 03:03:58;;;;;;;30.67;17.87;;;4.20;99.90;;;;;;4975165;28;20179;-49
2021/12/29 03:06:24;;;;;;;27.23;15.03;;;4.20;99.90;;;;;;4989401;28;20180;-51
2021/12/29 03:08:50;;;;;;;31.17;16.70;;;4.20;99.90;;;;;;4974328;28;20172;-53
2021/12/29 03:11:17;;;;;;;26.80;15.93;;;4.20;99.90;;;;;;4975614;28;20176;-51
2021/12/29 03:13:43;;;;;;;32.53;18.37;;;4.20;99.90;;;;;;4976230;28;20172;-50
2021/12/29 03:16:10;;;;;;;31.80;17.23;;;4.20;99.90;;;;;;4976198;28;20239;-50
2021/12/29 03:18:36;;;;;;;40.03;19.23;;;4.20;99.90;;;;;;4974310;28;20498;-50
2021/12/29 03:21:02;;;;;;;36.87;17.80;;;4.10;99.90;;;;;;4975812;28;20180;-53
2021/12/29 03:23:28;;;;;;;33.20;18.20;;;4.10;99.90;;;;;;4976284;28;20468;-49
2021/12/29 03:25:54;;;;;;;35.53;18.40;;;4.10;99.90;;;;;;4973461;28;20737;-52
2021/12/29 03:28:21;;;;;;;32.20;16.40;;;4.10;99.90;;;;;;4975702;28;20274;-48
2021/12/29 03:30:51;;;;;;;34.33;19.17;;;4.10;99.90;;;;;;4976560;28;20176;-52
2021/12/29 03:33:17;;;;;;;30.37;16.83;;;4.10;99.90;;;;;;4971505;28;20183;-53
2021/12/29 03:35:52;;;;;;;33.37;17.70;;;4.10;99.90;;;;;;4973573;28;20640;-51
2021/12/29 03:38:22;;;;;;;30.33;16.43;;;4.10;99.90;;;;;;4973241;28;20435;-51
2021/12/29 03:40:49;;;;;;;30.73;17.03;;;4.10;99.90;;;;;;4975892;28;20509;-56
2021/12/29 03:43:14;;;;;;;28.37;15.83;;;4.10;99.90;;;;;;4975204;28;20176;-52
2021/12/29 03:45:44;;;;;;;28.00;15.50;;;4.20;99.90;;;;;;4976178;28;20187;-53
2021/12/29 03:48:11;;;;;;;36.20;19.23;;;4.20;99.90;;;;;;4974978;28;20176;-52
2021/12/29 03:50:37;;;;;;;32.83;17.93;;;4.10;99.90;;;;;;4975735;28;20182;-51
2021/12/29 03:53:03;;;;;;;29.13;16.27;;;4.10;99.90;;;;;;4983530;28;20222;-53
2021/12/29 03:55:29;;;;;;;31.17;15.83;;;4.20;99.90;;;;;;4977348;28;20668;-53
2021/12/29 03:57:55;;;;;;;34.60;18.17;;;4.20;99.90;;;;;;4994432;28;20177;-54
2021/12/29 04:00:21;;;;;;;37.27;18.50;;;4.20;99.90;;;;;;4976442;28;20193;-54
2021/12/29 04:02:47;;;;;;;31.67;17.57;;;4.20;99.90;;;;;;4994262;28;20478;-52
2021/12/29 04:05:17;;;;;;;32.60;17.60;;;4.20;99.90;;;;;;4992828;28;20253;-52
2021/12/29 04:07:43;;;;;;;31.50;17.20;;;4.20;99.90;;;;;;4976642;28;20266;-52
2021/12/29 04:10:10;;;;;;;28.50;16.73;;;4.20;99.90;;;;;;4977544;28;20286;-52
2021/12/29 04:12:39;;;;;;;28.67;16.80;;;4.20;99.90;;;;;;4976735;28;20183;-55
2021/12/29 04:15:09;;;;;;;32.77;17.00;;;4.20;99.90;;;;;;4978440;28;20425;-52
2021/12/29 04:17:38;;;;;;;30.13;17.80;;;4.20;99.90;;;;;;4976663;28;20266;-52
2021/12/29 04:22:56;;;;;;;31.40;17.30;;;4.20;99.90;;;;;;4990393;28;20178;-50
2021/12/29 04:25:25;;;;;;;28.07;16.63;;;4.10;99.90;;;;;;4990602;28;20255;-50
2021/12/29 04:27:51;;;;;;;29.77;18.50;;;4.10;99.90;;;;;;4974482;28;20178;-51
2021/12/29 04:30:18;;;;;;;28.43;17.73;;;4.10;99.90;;;;;;4991851;28;20168;-52
2021/12/29 04:32:43;;;;;;;35.77;20.73;;;4.10;99.90;;;;;;4976247;28;20167;-50
2021/12/29 04:35:09;;;;;;;36.70;19.03;;;4.10;99.90;;;;;;4976593;28;20194;-55
2021/12/29 04:37:35;;;;;;;33.13;18.83;;;4.10;99.90;;;;;;4976767;28;20261;-51
2021/12/29 04:40:00;;;;;;;30.87;17.23;;;4.10;99.90;;;;;;4975642;28;20265;-52
2021/12/29 04:42:26;;;;;;;29.07;17.37;;;4.10;99.90;;;;;;4992289;28;20186;-52
2021/12/29 04:44:51;;;;;;;31.95;20.45;;;4.10;99.90;;;;;;4973185;28;20398;-52
2021/12/29 04:47:18;;;;;;;36.23;23.77;;;4.10;99.90;;;;;;4972861;28;20685;-50
2021/12/29 04:49:45;;;;;;;34.30;19.50;;;4.20;99.90;;;;;;4990525;28;20167;-52
2021/12/29 04:52:11;;;;;;;29.20;16.70;;;4.20;99.90;;;;;;4990270;28;20164;-53
2021/12/29 04:54:38;;;;;;;31.33;17.07;;;4.20;99.90;;;;;;4974611;28;20183;-50
2021/12/29 04:57:04;;;;;;;28.63;15.93;;;4.20;99.90;;;;;;4993922;28;20267;-52
2021/12/29 04:59:31;;;;;;;28.90;17.17;;;4.30;99.90;;;;;;4977324;28;20195;-54
2021/12/29 05:01:57;;;;;;;27.40;17.10;;;4.30;99.90;;;;;;4991286;28;20199;-53
2021/12/29 05:04:33;;;;;;;29.03;16.27;;;4.30;99.90;;;;;;4973402;28;20326;-56
2021/12/29 05:10:05;;;;;;;25.60;15.67;;;4.40;99.90;;;;;;4913250;29;20616;-52
2021/12/29 05:12:30;;;;;;;29.80;17.87;;;4.40;99.90;;;;;;4912282;29;20583;-52
2021/12/29 05:14:56;;;;;;;30.50;18.40;;;4.40;99.90;;;;;;4947751;28;20253;-49
2021/12/29 05:17:22;;;;;;;28.87;17.00;;;4.30;99.90;;;;;;4974711;28;20474;-53
2021/12/29 05:19:47;;;;;;;26.80;15.53;;;4.30;99.90;;;;;;4988574;28;20527;-54
2021/12/29 05:22:13;;;;;;;29.20;17.23;;;4.30;99.90;;;;;;4972569;28;20179;-51
2021/12/29 05:24:39;;;;;;;31.90;18.13;;;4.20;99.90;;;;;;4989941;28;20316;-55
2021/12/29 05:27:04;;;;;;;30.13;17.93;;;4.30;99.90;;;;;;4971298;28;20179;-56
2021/12/29 05:29:30;;;;;;;30.33;16.80;;;4.30;99.90;;;;;;4971324;28;20532;-53
2021/12/29 05:31:55;;;;;;;26.73;16.13;;;4.20;99.90;;;;;;4992211;28;20212;-53
2021/12/29 05:34:21;;;;;;;29.23;17.00;;;4.30;99.90;;;;;;4975562;28;20359;-54
2021/12/29 05:36:47;;;;;;;32.07;17.20;;;4.20;99.90;;;;;;4975872;28;20546;-53
2021/12/29 05:39:12;;;;;;;27.43;16.27;;;4.20;99.90;;;;;;4976098;28;20171;-50
2021/12/29 05:41:38;;;;;;;26.27;16.53;;;4.20;99.90;;;;;;4977603;28;20167;-52
2021/12/29 05:44:04;;;;;;;27.83;16.13;;;4.20;99.90;;;;;;4977913;28;20227;-53
2021/12/29 05:46:30;;;;;;;27.80;17.40;;;4.20;99.90;;;;;;4979102;28;20187;-52
2021/12/29 05:48:55;;;;;;;26.90;17.30;;;4.30;99.90;;;;;;4977252;28;20317;-52
2021/12/29 05:51:21;;;;;;;25.57;15.87;;;4.20;99.90;;;;;;4976544;28;20232;-51
2021/12/29 05:53:47;;;;;;;28.47;16.47;;;4.20;99.90;;;;;;4972866;28;20686;-54
2021/12/29 05:56:12;;;;;;;28.77;16.90;;;4.20;99.90;;;;;;4973595;28;20204;-52
2021/12/29 05:58:39;;;;;;;26.53;16.80;;;4.20;99.90;;;;;;4973608;28;20681;-50
2021/12/29 06:01:05;;;;;;;28.83;16.63;;;4.30;99.90;;;;;;4973932;28;20226;-50
2021/12/29 06:03:31;;;;;;;29.93;17.47;;;4.30;99.90;;;;;;4973500;28;20198;-50
2021/12/29 06:05:57;;;;;;;28.47;17.27;;;4.30;99.90;;;;;;4971646;28;20176;-53
2021/12/29 06:08:22;;;;;;;26.87;17.10;;;4.30;99.90;;;;;;4972604;28;20184;-51
2021/12/29 06:10:48;;;;;;;27.90;16.63;;;4.20;99.90;;;;;;4972314;28;20230;-52
2021/12/29 06:13:14;;;;;;;27.03;16.80;;;4.30;99.90;;;;;;4969651;28;20393;-51
2021/12/29 06:15:39;;;;;;;28.27;17.20;;;4.30;99.90;;;;;;4970662;28;20172;-55
2021/12/29 06:18:05;;;;;;;27.10;16.40;;;4.30;99.90;;;;;;4971833;28;20451;-51
2021/12/29 06:20:31;;;;;;;25.57;15.93;;;4.30;99.90;;;;;;4973448;28;20380;-52
2021/12/29 06:22:57;;;;;;;27.20;16.70;;;4.30;99.90;;;;;;4974284;28;20251;-48
2021/12/29 06:25:23;;;;;;;26.37;16.03;;;4.30;99.90;;;;;;4973761;28;20180;-53
2021/12/29 06:27:50;;;;;;;28.23;18.13;;;4.30;99.90;;;;;;4973225;28;20194;-49
2021/12/29 06:30:16;;;;;;;32.23;18.90;;;4.30;99.90;;;;;;4973489;28;20176;-53
2021/12/29 06:32:45;;;;;;;29.20;18.03;;;4.20;99.90;;;;;;4972786;28;20172;-50
2021/12/29 06:35:13;;;;;;;36.70;19.07;;;4.30;99.90;;;;;;4974323;28;20206;-54
2021/12/29 06:37:39;;;;;;;32.30;19.07;;;4.20;99.90;;;;;;4974227;28;20564;-52
2021/12/29 06:40:05;;;;;;;31.73;19.33;;;4.20;99.90;;;;;;4971350;28;20274;-50
2021/12/29 06:42:31;;;;;;;32.43;19.00;;;4.20;99.90;;;;;;4972219;28;20287;-49
2021/12/29 06:44:57;;;;;;;30.57;18.67;;;4.20;99.90;;;;;;4972102;28;20271;-54
2021/12/29 06:47:24;;;;;;;33.20;19.40;;;4.20;99.90;;;;;;4986332;28;20191;-52
2021/12/29 06:49:50;;;;;;;32.10;19.13;;;4.20;99.90;;;;;;4971879;28;20186;-53
2021/12/29 06:52:16;;;;;;;35.47;19.67;;;4.20;99.90;;;;;;4971467;28;20530;-51
2021/12/29 06:54:41;;;;;;;34.27;20.37;;;4.20;99.90;;;;;;4990884;28;20788;-52
2021/12/29 06:57:07;;;;;;;36.23;20.60;;;4.20;99.90;;;;;;4973557;28;20232;-51
2021/12/29 06:59:33;;;;;;;34.63;18.50;;;4.20;99.90;;;;;;4972438;28;20536;-55
2021/12/29 07:01:59;;;;;;;31.83;18.10;;;4.20;99.90;;;;;;4989468;28;20561;-55
2021/12/29 07:04:25;;;;;;;36.40;21.70;;;4.20;99.90;;;;;;4970352;28;20728;-53
2021/12/29 07:06:52;;;;;;;31.57;18.50;;;4.20;99.90;;;;;;4970700;28;20523;-53
2021/12/29 07:09:17;;;;;;;32.03;18.77;;;4.30;99.90;;;;;;4971116;28;20175;-51
2021/12/29 07:11:43;;;;;;;34.17;19.83;;;4.20;99.90;;;;;;4972314;28;20226;-53
2021/12/29 07:14:09;;;;;;;33.97;19.57;;;4.20;99.90;;;;;;4972641;28;20192;-52
2021/12/29 07:16:36;;;;;;;30.00;19.33;;;4.20;99.90;;;;;;4972930;28;20242;-54
2021/12/29 07:19:03;;;;;;;29.57;18.33;;;4.20;99.90;;;;;;4988253;28;20461;-54
2021/12/29 07:21:29;;;;;;;34.27;19.43;;;4.20;99.90;;;;;;5015400;28;20544;-51
2021/12/29 07:23:55;;;;;;;31.93;19.53;;;4.20;99.90;;;;;;4997539;28;20240;-51
2021/12/29 07:26:22;;;;;;;31.27;19.97;;;4.20;99.90;;;;;;4996426;28;20241;-56
2021/12/29 07:28:49;;;;;;;30.40;17.90;;;4.20;99.90;;;;;;5008864;28;20563;-53
2021/12/29 07:31:15;;;;;;;34.10;19.47;;;4.20;99.90;;;;;;5009027;28;20179;-53
2021/12/29 07:33:40;;;;;;;35.27;20.73;;;4.20;99.90;;;;;;5011311;28;20170;-52
2021/12/29 07:36:06;;;;;;;30.53;19.13;;;4.20;99.90;;;;;;4993836;28;20262;-50
2021/12/29 07:38:32;;;;;;;30.60;18.47;;;4.20;99.90;;;;;;5012349;28;20158;-51
2021/12/29 07:40:57;;;;;;;30.10;18.40;;;4.20;99.90;;;;;;4994158;28;20542;-53
2021/12/29 07:43:23;;;;;;;29.63;18.00;;;4.30;99.90;;;;;;4991038;28;20352;-54
2021/12/29 07:45:50;;;;;;;26.43;16.87;;;4.30;99.90;;;;;;5008835;28;20174;-53
2021/12/29 07:48:17;;;;;;;29.73;19.20;;;4.30;99.90;;;;;;4991310;28;20171;-54
2021/12/29 07:50:43;;;;;;;33.20;19.77;;;4.20;99.90;;;;;;4991156;28;20547;-52
2021/12/29 07:53:08;;;;;;;32.87;19.60;;;4.20;99.90;;;;;;4989656;28;20271;-50
2021/12/29 07:55:34;;;;;;;29.30;19.47;;;4.20;99.90;;;;;;4990617;28;20194;-54
2021/12/29 07:57:59;;;;;;;31.23;19.50;;;4.20;99.90;;;;;;4990590;28;20174;-54
2021/12/29 08:00:25;;;;;;;31.20;19.07;;;4.20;99.90;;;;;;4991369;28;20455;-53
2021/12/29 08:02:52;;;;;;;30.57;18.97;;;4.20;99.90;;;;;;4991156;28;20171;-54
2021/12/29 08:05:17;;;;;;;27.33;16.77;;;4.30;99.90;;;;;;4992722;28;20244;-52
2021/12/29 08:07:43;;;;;;;29.80;19.43;;;4.20;99.90;;;;;;4993473;28;20499;-50
2021/12/29 08:10:09;;;;;;;30.30;17.67;;;4.20;99.90;;;;;;4994374;28;20252;-55
2021/12/29 08:12:35;;;;;;;30.33;18.87;;;4.20;99.90;;;;;;4994336;28;20229;-50
2021/12/29 08:15:00;;;;;;;27.30;17.77;;;4.20;99.90;;;;;;4994685;28;20347;-53
2021/12/29 08:17:26;;;;;;;28.90;17.63;;;4.30;99.90;;;;;;4992838;28;20293;-53
2021/12/29 08:19:51;;;;;;;30.60;18.70;;;4.30;99.90;;;;;;4992383;28;20285;-52
2021/12/29 08:22:17;;;;;;;28.17;17.03;;;4.30;99.90;;;;;;5008773;28;20237;-51
2021/12/29 08:24:44;;;;;;;29.27;18.37;;;4.30;99.90;;;;;;4991463;28;20247;-52
2021/12/29 08:27:10;;;;;;;33.53;19.43;;;4.30;99.90;;;;;;4989605;28;20270;-51
2021/12/29 08:29:36;;;;;;;30.43;18.20;;;4.30;99.90;;;;;;5006315;28;20262;-51
2021/12/29 08:32:03;;;;;;;30.67;19.27;;;4.30;99.90;;;;;;5005791;28;20261;-52
2021/12/29 08:34:28;;;;;;;34.83;20.47;;;4.30;99.90;;;;;;4986816;28;20589;-54
2021/12/29 08:36:54;;;;;;;31.60;20.43;;;4.30;99.90;;;;;;5004552;28;20202;-50
2021/12/29 08:39:20;;;;;;;33.50;20.23;;;4.30;99.90;;;;;;5004225;28;20155;-50
2021/12/29 08:41:47;;;;;;;35.23;19.97;;;4.30;99.90;;;;;;4987037;28;20447;-55
2021/12/29 08:44:13;;;;;;;28.57;17.23;;;4.30;99.90;;;;;;4986637;28;20171;-53
2021/12/29 08:46:39;;;;;;;29.07;18.37;;;4.30;99.90;;;;;;4985730;28;20444;-55
2021/12/29 08:49:05;;;;;;;32.77;19.37;;;4.30;99.90;;;;;;4983982;28;20278;-51
2021/12/29 08:51:31;;;;;;;30.60;19.33;;;4.30;99.90;;;;;;4982073;28;20557;-50
2021/12/29 08:53:57;;;;;;;32.03;19.53;;;4.40;99.90;;;;;;4982010;28;20322;-52
2021/12/29 08:56:24;;;;;;;34.17;18.73;;;4.30;99.90;;;;;;4983125;28;20548;-53
2021/12/29 08:58:51;;;;;;;31.00;19.47;;;4.30;99.90;;;;;;4982032;28;20452;-53
2021/12/29 09:01:17;;;;;;;32.67;20.40;;;4.30;99.90;;;;;;4984103;28;20269;-52
2021/12/29 09:03:43;;;;;;;33.90;20.37;;;4.30;99.90;;;;;;4984519;28;20312;-50
2021/12/29 09:06:09;;;;;;;33.13;20.63;;;4.30;99.90;;;;;;4988856;28;20265;-52
2021/12/29 09:08:34;;;;;;;34.33;21.13;;;4.30;99.90;;;;;;4991423;28;20176;-49
2021/12/29 09:11:00;;;;;;;32.33;19.00;;;4.30;99.90;;;;;;4990593;28;20175;-49
2021/12/29 09:13:25;;;;;;;36.33;21.53;;;4.30;99.90;;;;;;4990944;28;20341;-54
2021/12/29 09:15:56;;;;;;;36.97;20.63;;;4.30;99.90;;;;;;4991702;28;20215;-54
2021/12/29 09:18:26;;;;;;;30.43;18.10;;;4.30;99.90;;;;;;4989262;28;20387;-51
2021/12/29 09:20:52;;;;;;;29.80;17.77;;;4.30;99.90;;;;;;4987526;28;20167;-51
2021/12/29 09:23:18;;;;;;;29.87;18.53;;;4.30;99.90;;;;;;4988246;28;20417;-55
2021/12/29 09:25:46;;;;;;;32.13;19.23;;;4.40;99.90;;;;;;4987485;28;20506;-51
2021/12/29 09:28:17;;;;;;;33.37;19.70;;;4.40;99.90;;;;;;4987555;28;20424;-52
2021/12/29 09:30:45;;;;;;;31.67;19.63;;;4.40;99.90;;;;;;4989174;28;20171;-51
2021/12/29 09:33:12;;;;;;;39.33;20.47;;;4.50;99.90;;;;;;4990361;28;20167;-55
2021/12/29 09:35:38;;;;;;;34.13;19.87;;;4.50;99.90;;;;;;4988050;28;20160;-54
2021/12/29 09:38:05;;;;;;;36.67;20.10;;;4.40;99.90;;;;;;4988625;28;20225;-52
2021/12/29 09:40:32;;;;;;;36.00;20.53;;;4.50;99.90;;;;;;4990195;28;20164;-54
2021/12/29 09:42:58;;;;;;;37.23;20.90;;;4.40;99.90;;;;;;4989471;28;20183;-50
2021/12/29 09:45:25;;;;;;;37.20;21.53;;;4.40;99.90;;;;;;4989632;28;20315;-54
2021/12/29 09:47:51;;;;;;;38.83;22.10;;;4.40;99.90;;;;;;4995144;28;20234;-55
2021/12/29 09:50:20;;;;;;;44.57;23.70;;;4.40;99.90;;;;;;4993474;28;20183;-51
2021/12/29 09:52:45;;;;;;;35.90;22.17;;;4.40;99.90;;;;;;4998607;28;20238;-52
2021/12/29 09:55:14;;;;;;;40.67;21.83;;;4.40;99.90;;;;;;4996355;28;20174;-52
2021/12/29 09:57:47;;;;;;;39.73;22.50;;;4.40;99.90;;;;;;4994806;28;20206;-54
2021/12/29 10:00:29;;;;;;;35.83;20.30;;;4.40;99.90;;;;;;4981634;28;20181;-54
2021/12/29 10:02:59;;;;;;;37.73;22.60;;;4.40;99.90;;;;;;4966268;28;20177;-52
2021/12/29 10:05:28;;;;;;;38.87;22.33;;;4.40;99.90;;;;;;4980133;28;20605;-55
2021/12/29 10:08:07;;;;;;;36.47;21.27;;;4.30;99.90;;;;;;4981012;28;20179;-54
2021/12/29 10:10:38;;;;;;;41.23;21.53;;;4.40;99.90;;;;;;5014714;28;20210;-53
2021/12/29 10:13:05;;;;;;;35.83;21.43;;;4.40;99.90;;;;;;4964813;28;20207;-52
2021/12/29 10:15:49;;;;;;;38.07;22.50;;;4.40;99.90;;;;;;4995873;28;20244;-55
2021/12/29 10:18:19;;;;;;;36.43;21.47;;;4.40;99.90;;;;;;4966488;28;20783;-55
2021/12/29 10:20:49;;;;;;;38.70;21.80;;;4.40;99.90;;;;;;4979778;28;20179;-51
2021/12/29 10:23:47;;;;;;;38.00;22.03;;;4.50;99.90;;;;;;5013013;28;20182;-55
2021/12/29 10:26:24;;;;;;;39.90;20.57;;;4.50;99.90;;;;;;4982021;28;20190;-53
2021/12/29 10:28:54;;;;;;;38.57;21.37;;;4.50;99.90;;;;;;4982575;28;20175;-55
2021/12/29 10:31:26;;;;;;;40.27;22.73;;;4.50;99.90;;;;;;4966917;28;20198;-52
2021/12/29 10:33:59;;;;;;;42.10;22.77;;;4.50;99.90;;;;;;4998023;28;20181;-54
2021/12/29 10:36:31;;;;;;;37.70;21.47;;;4.50;99.90;;;;;;5015407;28;20268;-53
2021/12/29 10:39:14;;;;;;;43.30;22.37;;;4.50;99.90;;;;;;5015016;28;20163;-52
2021/12/29 10:41:56;;;;;;;44.73;23.83;;;4.60;99.90;;;;;;5015905;28;20186;-45
2021/12/29 10:44:34;;;;;;;38.43;21.73;;;4.50;99.90;;;;;;4998175;28;20170;-45
2021/12/29 10:47:14;;;;;;;39.00;21.40;;;4.50;99.90;;;;;;5013437;28;20171;-53
2021/12/29 10:49:55;;;;;;;36.13;21.57;;;4.50;99.90;;;;;;4997226;28;20195;-53
2021/12/29 10:52:31;;;;;;;37.60;22.00;;;4.50;99.90;;;;;;4997027;28;20247;-49
2021/12/29 10:54:57;;;;;;;38.67;22.83;;;4.60;99.90;;;;;;4994608;28;20232;-52
2021/12/29 10:57:22;;;;;;;41.27;21.93;;;4.60;99.90;;;;;;4994221;28;20202;-54
2021/12/29 10:59:55;;;;;;;35.20;19.70;;;4.60;99.90;;;;;;4993979;28;20171;-51
2021/12/29 11:02:29;;;;;;;38.37;20.40;;;4.60;99.90;;;;;;4991818;28;20197;-50
2021/12/29 11:05:01;;;;;;;37.43;21.43;;;4.70;99.90;;;;;;4982318;28;20180;-52
2021/12/29 11:07:32;;;;;;;35.60;19.97;;;4.70;99.90;;;;;;4974793;28;20274;-54
2021/12/29 11:10:11;;;;;;;37.30;21.40;;;4.70;99.90;;;;;;4975071;28;20290;-52
2021/12/29 11:12:49;;;;;;;39.50;20.10;;;4.70;99.90;;;;;;4989979;28;20229;-54
2021/12/29 11:15:26;;;;;;;40.07;20.33;;;4.70;99.90;;;;;;4973961;28;20563;-54
2021/12/29 11:17:54;;;;;;;37.30;20.97;;;4.70;99.90;;;;;;4973715;28;20235;-53
2021/12/29 11:20:23;;;;;;;41.23;21.50;;;4.80;99.90;;;;;;4973725;28;20823;-51
2021/12/29 11:22:51;;;;;;;35.70;20.57;;;4.70;99.90;;;;;;4989373;28;20168;-52
2021/12/29 11:25:29;;;;;;;31.83;19.33;;;4.80;99.90;;;;;;4988324;28;20254;-55
2021/12/29 11:27:55;;;;;;;34.80;19.83;;;4.80;99.90;;;;;;4971571;28;20198;-51
2021/12/29 11:30:20;;;;;;;32.80;19.40;;;4.80;99.90;;;;;;4972930;28;20215;-50
2021/12/29 11:32:48;;;;;;;34.93;19.57;;;4.80;99.90;;;;;;4989137;28;20180;-53
2021/12/29 11:35:20;;;;;;;30.00;17.80;;;4.80;99.90;;;;;;4972417;28;20190;-51
2021/12/29 11:37:52;;;;;;;34.07;19.27;;;4.80;99.90;;;;;;4974468;28;20289;-52
2021/12/29 11:40:27;;;;;;;32.93;19.50;;;4.80;99.90;;;;;;4975262;28;20246;-49
2021/12/29 11:42:53;;;;;;;39.10;20.30;;;4.90;99.90;;;;;;4976044;28;20177;-52
2021/12/29 11:45:20;;;;;;;33.97;19.93;;;4.90;99.90;;;;;;4994023;28;20172;-53
2021/12/29 11:47:47;;;;;;;29.80;17.90;;;4.90;99.90;;;;;;4992599;28;20186;-56
2021/12/29 11:50:25;;;;;;;31.40;18.40;;;5.00;99.90;;;;;;4976442;28;20202;-55
2021/12/29 11:53:27;;;;;;;29.13;18.43;;;4.90;99.90;;;;;;4997315;28;20381;-55
2021/12/29 11:56:08;;;;;;;32.57;17.13;;;4.90;99.90;;;;;;4993067;28;20170;-54
2021/12/29 11:58:41;;;;;;;28.57;17.30;;;4.90;99.90;;;;;;5011725;28;20180;-54
2021/12/29 12:01:27;;;;;;;27.27;17.47;;;4.90;99.90;;;;;;4995348;28;20182;-52
2021/12/29 12:03:54;;;;;;;33.97;19.93;;;4.90;99.90;;;;;;5010566;28;20173;-50
2021/12/29 12:06:41;;;;;;;32.20;21.20;;;5.00;99.90;;;;;;4990820;28;20390;-52
2021/12/29 12:09:15;;;;;;;30.85;22.05;;;5.00;99.90;;;;;;4971899;28;21002;-55
2021/12/29 12:11:59;;;;;;;27.83;21.08;;;5.10;99.90;;;;;;4973882;28;20545;-51
2021/12/29 12:14:27;;;;;;;27.02;20.42;;;5.10;99.90;;;;;;4974145;28;20406;-54
2021/12/29 12:17:05;;;;;;;28.50;20.77;;;5.20;99.90;;;;;;4976012;28;20421;-55
2021/12/29 12:19:32;;;;;;;30.85;21.73;;;5.30;99.90;;;;;;4974671;28;20410;-53
2021/12/29 12:22:16;;;;;;;31.75;22.45;;;5.40;99.90;;;;;;4974212;28;20401;-56
2021/12/29 12:25:09;;;;;;;31.08;21.95;;;5.30;99.90;;;;;;4991471;28;20382;-56
2021/12/29 12:27:44;;;;;;;31.45;22.00;;;5.30;99.90;;;;;;4976014;28;20397;-53
2021/12/29 12:30:25;;;;;;;31.92;22.85;;;5.30;99.90;;;;;;4957873;28;20423;-55
2021/12/29 12:33:08;;;;;;;31.52;21.67;;;5.30;99.90;;;;;;4955471;28;20474;-54
2021/12/29 12:35:43;;;;;;;34.60;24.33;;;5.30;99.90;;;;;;4973939;28;20411;-49
2021/12/29 12:38:23;;;;;;;31.90;22.07;;;5.30;99.90;;;;;;4972516;28;20491;-54
2021/12/29 12:41:01;;;;;;;31.60;22.90;;;5.30;99.90;;;;;;4954421;28;20890;-54
2021/12/29 12:43:27;;;;;;;34.38;24.13;;;5.30;99.90;;;;;;4951719;28;20396;-53
2021/12/29 12:45:53;;;;;;;33.95;22.95;;;5.30;99.90;;;;;;4967812;28;20399;-54
2021/12/29 12:48:30;;;;;;;38.53;26.50;;;5.30;99.90;;;;;;4967677;28;20490;-56